createdAt,value
2022-10-17T00:01:42.963Z,3.30
2022-10-17T00:04:28.054Z,3.38
2022-10-17T00:07:12.958Z,3.15
2022-10-17T00:09:58.193Z,2.75
2022-10-17T00:12:43.123Z,2.80
2022-10-17T00:15:28.103Z,3.07
2022-10-17T00:18:13.265Z,2.95
2022-10-17T00:20:58.588Z,3.22
2022-10-17T00:23:44.264Z,3.33
2022-10-17T00:26:29.650Z,3.30
2022-10-17T00:29:15.058Z,2.90
2022-10-17T00:32:00.236Z,3.50
2022-10-17T00:34:45.033Z,3.13
2022-10-17T00:37:31.522Z,3.50
2022-10-17T00:40:16.392Z,3.22
2022-10-17T00:43:01.407Z,3.60
2022-10-17T00:45:46.214Z,3.33
2022-10-17T00:48:31.234Z,3.15
2022-10-17T00:51:19.529Z,3.30
2022-10-17T00:54:05.274Z,3.60
2022-10-17T00:56:51.420Z,3.43
2022-10-17T00:59:40.168Z,3.38
2022-10-17T01:02:25.585Z,3.30
2022-10-17T01:05:11.554Z,3.25
2022-10-17T01:07:56.990Z,3.60
2022-10-17T01:11:04.884Z,3.70
2022-10-17T01:13:56.199Z,3.47
2022-10-17T01:17:02.592Z,3.70
2022-10-17T01:20:13.381Z,3.65
2022-10-17T01:23:22.544Z,3.35
2022-10-17T01:26:21.880Z,3.73
2022-10-17T01:29:31.557Z,3.88
2022-10-17T01:32:22.971Z,3.75
2022-10-17T01:35:25.501Z,3.85
2022-10-17T01:38:17.434Z,4.38
2022-10-17T01:41:09.754Z,3.87
2022-10-17T01:44:11.107Z,4.07
2022-10-17T01:47:03.135Z,4.03
2022-10-17T01:49:51.298Z,4.53
2022-10-17T01:52:51.007Z,3.58
2022-10-17T01:55:40.354Z,4.10
2022-10-17T01:58:31.451Z,3.90
2022-10-17T02:01:18.152Z,4.30
2022-10-17T02:04:05.361Z,4.05
2022-10-17T02:06:50.472Z,4.65
2022-10-17T02:09:36.247Z,4.10
2022-10-17T02:12:42.230Z,4.20
2022-10-17T02:15:29.722Z,4.05
2022-10-17T02:18:30.644Z,4.40
2022-10-17T02:21:24.417Z,3.83
2022-10-17T02:24:18.142Z,3.73
2022-10-17T02:27:26.329Z,4.30
2022-10-17T02:30:20.662Z,4.13
2022-10-17T02:33:25.451Z,3.90
2022-10-17T02:36:19.006Z,4.25
2022-10-17T02:39:06.480Z,3.93
2022-10-17T02:41:52.588Z,3.83
2022-10-17T02:44:40.532Z,4.20
2022-10-17T02:47:29.366Z,3.55
2022-10-17T02:50:14.645Z,4.13
2022-10-17T02:53:10.699Z,4.43
2022-10-17T02:55:59.990Z,4.20
2022-10-17T02:58:55.844Z,3.92
2022-10-17T03:01:41.916Z,4.03
2022-10-17T03:04:26.916Z,3.63
2022-10-17T03:07:12.173Z,3.97
2022-10-17T03:09:56.952Z,3.55
2022-10-17T03:12:41.868Z,3.92
2022-10-17T03:15:26.994Z,4.30
2022-10-17T03:18:12.439Z,3.83
2022-10-17T03:20:57.338Z,3.77
2022-10-17T03:23:42.182Z,3.80
2022-10-17T03:26:29.373Z,3.78
2022-10-17T03:29:14.487Z,3.90
2022-10-17T03:31:59.583Z,3.58
2022-10-17T03:34:44.402Z,3.63
2022-10-17T03:37:30.073Z,3.90
2022-10-17T03:40:15.567Z,3.70
2022-10-17T03:43:00.591Z,4.13
2022-10-17T03:45:45.426Z,4.18
2022-10-17T03:48:31.288Z,3.87
2022-10-17T03:51:16.337Z,3.90
2022-10-17T03:54:01.387Z,4.15
2022-10-17T03:56:46.581Z,3.80
2022-10-17T03:59:31.887Z,4.05
2022-10-17T04:02:16.602Z,4.00
2022-10-17T04:05:01.891Z,4.00
2022-10-17T04:07:46.871Z,4.40
2022-10-17T04:10:31.960Z,3.70
2022-10-17T04:13:17.058Z,4.28
2022-10-17T04:16:08.833Z,3.97
2022-10-17T04:18:55.664Z,3.83
2022-10-17T04:21:40.831Z,4.18
2022-10-17T04:24:26.362Z,3.58
2022-10-17T04:27:11.681Z,4.07
2022-10-17T04:29:56.808Z,3.80
2022-10-17T04:32:41.742Z,3.88
2022-10-17T04:35:27.123Z,3.75
2022-10-17T04:38:11.791Z,4.07
2022-10-17T04:40:58.411Z,3.67
2022-10-17T04:43:46.921Z,3.73
2022-10-17T04:46:35.338Z,4.43
2022-10-17T04:49:20.500Z,3.85
2022-10-17T04:52:05.562Z,4.22
2022-10-17T04:54:50.718Z,4.07
2022-10-17T04:57:35.801Z,3.47
2022-10-17T05:00:20.541Z,3.85
2022-10-17T05:03:05.669Z,3.55
2022-10-17T05:05:51.368Z,3.80
2022-10-17T05:08:36.419Z,3.50
2022-10-17T05:11:30.537Z,3.57
2022-10-17T05:14:15.920Z,3.63
2022-10-17T05:17:00.788Z,3.50
2022-10-17T05:19:45.723Z,3.60
2022-10-17T05:22:31.146Z,3.97
2022-10-17T05:25:16.567Z,3.73
2022-10-17T05:28:01.682Z,4.07
2022-10-17T05:30:46.821Z,4.20
2022-10-17T05:33:32.489Z,3.65
2022-10-17T05:36:17.560Z,3.97
2022-10-17T05:39:03.080Z,3.90
2022-10-17T05:41:47.932Z,3.70
2022-10-17T05:44:33.276Z,3.75
2022-10-17T05:47:18.264Z,3.85
2022-10-17T05:50:03.536Z,3.75
2022-10-17T05:52:52.972Z,3.60
2022-10-17T05:55:38.089Z,3.35
2022-10-17T05:58:45.634Z,4.07
2022-10-17T06:01:28.390Z,3.30
2022-10-17T06:04:13.330Z,3.70
2022-10-17T06:06:58.529Z,3.53
2022-10-17T06:09:43.769Z,3.50
2022-10-17T06:12:29.093Z,3.63
2022-10-17T06:15:14.093Z,3.60
2022-10-17T06:17:58.884Z,3.72
2022-10-17T06:20:46.090Z,3.60
2022-10-17T06:23:31.300Z,3.85
2022-10-17T06:26:16.062Z,3.88
2022-10-17T06:29:01.465Z,3.33
2022-10-17T06:31:46.803Z,3.95
2022-10-17T06:34:32.218Z,3.53
2022-10-17T06:37:17.284Z,3.90
2022-10-17T06:40:02.624Z,3.85
2022-10-17T06:42:47.928Z,4.05
2022-10-17T06:45:32.748Z,3.60
2022-10-17T06:48:17.803Z,3.70
2022-10-17T06:51:05.265Z,3.67
2022-10-17T06:53:50.324Z,3.92
2022-10-17T06:56:35.587Z,3.67
2022-10-17T06:59:20.688Z,3.72
2022-10-17T07:02:06.426Z,3.40
2022-10-17T07:04:51.189Z,3.60
2022-10-17T07:07:40.021Z,3.90
2022-10-17T07:10:28.032Z,3.60
2022-10-17T07:13:13.069Z,3.70
2022-10-17T07:16:01.570Z,3.77
2022-10-17T07:18:50.012Z,3.60
2022-10-17T07:21:38.161Z,3.60
2022-10-17T07:24:24.409Z,3.70
2022-10-17T07:27:09.590Z,3.65
2022-10-17T07:29:54.504Z,4.20
2022-10-17T07:32:39.741Z,3.63
2022-10-17T07:35:24.861Z,3.35
2022-10-17T07:38:09.875Z,3.25
2022-10-17T07:40:59.500Z,3.70
2022-10-17T07:43:44.728Z,3.57
2022-10-17T07:46:29.714Z,3.72
2022-10-17T07:49:14.832Z,3.90
2022-10-17T07:51:59.781Z,3.40
2022-10-17T07:54:44.695Z,3.47
2022-10-17T07:57:29.838Z,3.50
2022-10-17T08:00:15.127Z,3.45
2022-10-17T08:03:00.052Z,3.90
2022-10-17T08:05:45.050Z,3.53
2022-10-17T08:08:30.359Z,3.63
2022-10-17T08:11:16.035Z,3.73
2022-10-17T08:14:01.296Z,3.47
2022-10-17T08:16:46.384Z,3.60
2022-10-17T08:19:31.343Z,3.15
2022-10-17T08:22:16.511Z,3.47
2022-10-17T08:25:01.479Z,3.63
2022-10-17T08:27:46.579Z,3.45
2022-10-17T08:30:31.501Z,3.45
2022-10-17T08:33:16.621Z,3.50
2022-10-17T08:36:03.124Z,3.00
2022-10-17T08:38:52.582Z,2.90
2022-10-17T08:41:45.514Z,3.00
2022-10-17T08:44:42.196Z,3.00
2022-10-17T08:47:38.089Z,3.03
2022-10-17T08:50:40.263Z,3.72
2022-10-17T08:53:38.332Z,2.90
2022-10-17T08:56:43.967Z,3.28
2022-10-17T08:59:31.342Z,3.30
2022-10-17T09:02:16.166Z,3.30
2022-10-17T09:05:30.381Z,2.90
2022-10-17T09:08:24.414Z,2.90
2022-10-17T09:11:31.374Z,3.20
2022-10-17T09:14:27.581Z,2.70
2022-10-17T09:17:32.778Z,2.97
2022-10-17T09:20:32.657Z,2.90
2022-10-17T09:23:19.768Z,3.30
2022-10-17T09:26:05.106Z,2.72
2022-10-17T09:28:56.442Z,2.72
2022-10-17T09:31:47.813Z,2.83
2022-10-17T09:34:32.991Z,3.08
2022-10-17T09:37:18.380Z,2.63
2022-10-17T09:40:07.722Z,2.85
2022-10-17T09:42:53.370Z,3.10
2022-10-17T09:45:49.746Z,3.10
2022-10-17T09:48:43.314Z,2.80
2022-10-17T09:51:28.386Z,2.60
2022-10-17T09:54:32.248Z,2.67
2022-10-17T09:57:19.520Z,2.80
2022-10-17T10:00:06.176Z,2.55
2022-10-17T10:02:50.996Z,3.20
2022-10-17T10:05:36.322Z,2.80
2022-10-17T10:08:21.859Z,3.13
2022-10-17T10:11:13.357Z,2.83
2022-10-17T10:14:11.983Z,2.90
2022-10-17T10:16:56.728Z,3.00
2022-10-17T10:19:50.292Z,3.03
2022-10-17T10:22:35.242Z,2.88
2022-10-17T10:25:20.340Z,2.90
2022-10-17T10:28:11.919Z,2.65
2022-10-17T10:31:00.002Z,2.80
2022-10-17T10:33:49.435Z,2.83
2022-10-17T10:36:56.635Z,2.85
2022-10-17T10:39:47.211Z,2.50
2022-10-17T10:42:36.938Z,2.70
2022-10-17T10:45:47.991Z,2.70
2022-10-17T10:48:36.919Z,2.87
2022-10-17T10:51:28.691Z,2.78
2022-10-17T10:54:23.564Z,2.58
2022-10-17T10:57:19.821Z,2.50
2022-10-17T11:00:15.534Z,2.40
2022-10-17T11:03:04.128Z,3.00
2022-10-17T11:05:57.762Z,2.67
2022-10-17T11:08:54.195Z,2.65
2022-10-17T11:11:47.912Z,2.60
2022-10-17T11:14:40.052Z,2.30
2022-10-17T11:17:39.032Z,2.20
2022-10-17T11:20:48.891Z,2.60
2022-10-17T11:23:59.218Z,2.83
2022-10-17T11:26:57.023Z,2.22
2022-10-17T11:29:43.235Z,2.45
2022-10-17T11:32:34.757Z,2.40
2022-10-17T11:35:27.650Z,2.85
2022-10-17T11:38:29.533Z,2.47
2022-10-17T11:41:37.692Z,2.10
2022-10-17T11:44:34.100Z,2.58
2022-10-17T11:47:45.831Z,2.23
2022-10-17T11:54:08.225Z,2.60
2022-10-17T11:57:16.218Z,2.20
2022-10-17T12:00:19.746Z,2.80
2022-10-17T12:03:29.648Z,2.67
2022-10-17T12:06:29.476Z,2.63
2022-10-17T12:09:32.560Z,2.78
2022-10-17T12:12:24.625Z,3.00
2022-10-17T12:15:12.439Z,3.00
2022-10-17T12:18:02.380Z,2.80
2022-10-17T12:20:58.318Z,3.30
2022-10-17T12:23:52.288Z,3.30
2022-10-17T12:26:38.009Z,3.00
2022-10-17T12:29:39.156Z,2.55
2022-10-17T12:32:24.239Z,2.67
2022-10-17T12:35:20.818Z,3.10
2022-10-17T12:38:21.451Z,3.35
2022-10-17T12:41:06.763Z,3.20
2022-10-17T12:43:53.608Z,3.55
2022-10-17T12:46:53.382Z,3.10
2022-10-17T12:49:54.335Z,3.10
2022-10-17T12:52:41.708Z,3.08
2022-10-17T12:55:27.034Z,2.65
2022-10-17T12:58:16.226Z,3.08
2022-10-17T13:01:23.158Z,2.93
2022-10-17T13:04:10.028Z,4.15
2022-10-17T13:06:57.598Z,3.97
2022-10-17T13:09:44.271Z,4.22
2022-10-17T13:12:29.310Z,3.58
2022-10-17T13:15:18.929Z,3.63
2022-10-17T13:18:04.428Z,4.20
2022-10-17T13:21:00.578Z,3.88
2022-10-17T13:23:47.527Z,4.28
2022-10-17T13:26:32.488Z,3.20
2022-10-17T13:29:19.185Z,2.53
2022-10-17T13:32:05.679Z,2.30
2022-10-17T13:35:16.980Z,1.90
2022-10-17T13:38:06.713Z,1.77
2022-10-17T13:40:51.566Z,1.45
2022-10-17T13:43:36.786Z,1.60
2022-10-17T13:46:38.364Z,1.52
2022-10-17T13:49:34.605Z,2.00
2022-10-17T13:52:22.275Z,1.50
2022-10-17T13:55:17.518Z,1.83
2022-10-17T13:58:16.504Z,1.60
2022-10-17T14:01:01.897Z,1.80
2022-10-17T14:03:49.792Z,1.52
2022-10-17T14:06:47.582Z,1.88
2022-10-17T14:09:36.237Z,1.80
2022-10-17T14:12:22.535Z,1.70
2022-10-17T14:15:13.506Z,1.77
2022-10-17T14:18:07.703Z,3.17
2022-10-17T14:24:23.047Z,1.70
2022-10-17T14:27:26.796Z,1.30
2022-10-17T14:30:51.518Z,1.60
2022-10-17T14:33:31.838Z,1.48
2022-10-17T14:36:16.900Z,1.70
2022-10-17T14:39:03.591Z,1.60
2022-10-17T14:41:49.669Z,1.77
2022-10-17T14:44:36.046Z,1.40
2022-10-17T14:47:44.012Z,1.58
2022-10-17T14:50:31.832Z,1.70
2022-10-17T14:53:16.440Z,1.58
2022-10-17T14:56:20.768Z,1.53
2022-10-17T14:59:11.115Z,1.67
2022-10-17T15:01:56.809Z,1.83
2022-10-17T15:04:42.036Z,1.70
2022-10-17T15:07:27.263Z,1.40
2022-10-17T15:10:36.937Z,1.73
2022-10-17T15:13:32.134Z,1.63
2022-10-17T15:16:22.575Z,1.60
2022-10-17T15:19:08.692Z,1.40
2022-10-17T15:21:53.615Z,1.75
2022-10-17T15:24:39.542Z,1.80
2022-10-17T15:27:26.197Z,2.10
2022-10-17T15:30:21.922Z,2.17
2022-10-17T15:33:06.909Z,1.60
2022-10-17T15:35:51.956Z,1.60
2022-10-17T15:38:36.982Z,1.60
2022-10-17T15:41:24.224Z,1.60
2022-10-17T15:44:09.041Z,1.80
2022-10-17T15:46:55.499Z,1.80
2022-10-17T15:49:40.710Z,1.75
2022-10-17T15:52:26.523Z,1.80
2022-10-17T15:55:11.419Z,1.80
2022-10-17T15:57:56.664Z,1.98
2022-10-17T16:00:41.546Z,1.98
2022-10-17T16:03:28.080Z,1.67
2022-10-17T16:06:14.224Z,1.40
2022-10-17T16:08:59.342Z,2.13
2022-10-17T16:11:44.914Z,1.88
2022-10-17T16:14:29.684Z,2.00
2022-10-17T16:17:16.232Z,1.60
2022-10-17T16:20:01.281Z,2.10
2022-10-17T16:22:46.491Z,2.25
2022-10-17T16:25:32.309Z,2.25
2022-10-17T16:28:17.460Z,1.98
2022-10-17T16:31:02.696Z,1.95
2022-10-17T16:33:49.588Z,2.17
2022-10-17T16:36:34.915Z,2.33
2022-10-17T16:39:19.940Z,1.95
2022-10-17T16:42:05.222Z,2.22
2022-10-17T16:44:50.753Z,2.47
2022-10-17T16:47:35.747Z,3.03
2022-10-17T16:50:20.992Z,2.60
2022-10-17T16:53:06.135Z,3.08
2022-10-17T16:56:01.774Z,2.90
2022-10-17T16:58:47.808Z,2.80
2022-10-17T17:01:32.590Z,3.17
2022-10-17T17:04:17.549Z,3.30
2022-10-17T17:07:03.013Z,3.33
2022-10-17T17:09:48.786Z,3.17
2022-10-17T17:12:35.971Z,3.22
2022-10-17T17:15:20.778Z,2.80
2022-10-17T17:18:06.207Z,3.08
2022-10-17T17:20:51.660Z,2.85
2022-10-17T17:23:39.711Z,3.25
2022-10-17T17:26:26.117Z,2.55
2022-10-17T17:29:13.695Z,2.53
2022-10-17T17:31:58.647Z,2.85
2022-10-17T17:34:43.528Z,2.95
2022-10-17T17:37:29.241Z,2.80
2022-10-17T17:40:14.130Z,2.33
2022-10-17T17:45:49.667Z,2.83
2022-10-17T17:48:38.096Z,2.65
2022-10-17T17:51:28.440Z,2.40
2022-10-17T17:54:14.114Z,2.33
2022-10-17T17:56:58.879Z,2.43
2022-10-17T17:59:43.959Z,2.63
2022-10-17T18:02:29.264Z,2.95
2022-10-17T18:05:14.876Z,2.72
2022-10-17T18:07:59.882Z,3.03
2022-10-17T18:10:49.370Z,3.00
2022-10-17T18:13:34.447Z,2.80
2022-10-17T18:16:19.569Z,2.75
2022-10-17T18:19:07.232Z,3.38
2022-10-17T18:21:52.033Z,3.33
2022-10-17T18:24:37.228Z,2.90
2022-10-17T18:27:22.196Z,3.15
2022-10-17T18:30:08.379Z,3.03
2022-10-17T18:32:53.408Z,3.35
2022-10-17T18:35:38.524Z,3.00
2022-10-17T18:38:23.655Z,2.70
2022-10-17T18:41:16.938Z,2.67
2022-10-17T18:44:05.208Z,2.60
2022-10-17T18:46:50.732Z,2.45
2022-10-17T18:49:36.564Z,2.50
2022-10-17T18:52:21.457Z,2.40
2022-10-17T18:55:07.354Z,2.28
2022-10-17T18:57:52.987Z,2.35
2022-10-17T19:00:38.014Z,2.40
2022-10-17T19:03:23.167Z,2.28
2022-10-17T19:06:09.906Z,2.47
2022-10-17T19:08:55.079Z,2.30
2022-10-17T19:11:40.102Z,2.17
2022-10-17T19:14:26.140Z,2.40
2022-10-17T19:17:11.390Z,1.90
2022-10-17T19:19:56.521Z,1.83
2022-10-17T19:22:41.571Z,1.80
2022-10-17T19:25:26.522Z,2.40
2022-10-17T19:28:11.596Z,2.00
2022-10-17T19:30:57.028Z,1.90
2022-10-17T19:33:42.137Z,1.60
2022-10-17T19:36:33.189Z,1.88
2022-10-17T19:39:22.756Z,1.70
2022-10-17T19:42:07.496Z,1.42
2022-10-17T19:44:52.395Z,1.70
2022-10-17T19:47:38.383Z,1.57
2022-10-17T19:50:23.441Z,1.48
2022-10-17T19:53:08.547Z,1.60
2022-10-17T19:55:53.630Z,1.65
2022-10-17T19:58:46.347Z,1.75
2022-10-17T20:01:35.613Z,1.40
2022-10-17T20:04:21.820Z,1.60
2022-10-17T20:07:07.007Z,1.58
2022-10-17T20:09:51.868Z,1.70
2022-10-17T20:12:37.064Z,2.00
2022-10-17T20:15:22.150Z,1.87
2022-10-17T20:18:08.217Z,1.95
2022-10-17T20:20:54.091Z,2.08
2022-10-17T20:23:40.118Z,1.83
2022-10-17T20:26:37.513Z,2.15
2022-10-17T20:29:23.944Z,2.63
2022-10-17T20:32:09.300Z,2.47
2022-10-17T20:34:54.436Z,1.92
2022-10-17T20:37:42.417Z,2.60
2022-10-17T20:40:35.222Z,2.53
2022-10-17T20:43:20.521Z,2.27
2022-10-17T20:46:22.789Z,2.50
2022-10-17T20:49:10.899Z,2.40
2022-10-17T20:51:55.804Z,2.55
2022-10-17T20:54:40.867Z,2.67
2022-10-17T20:57:25.782Z,2.40
2022-10-17T21:00:11.549Z,2.60
2022-10-17T21:05:46.545Z,2.78
2022-10-17T21:08:31.645Z,2.60
2022-10-17T21:11:21.612Z,2.80
2022-10-17T21:14:07.701Z,2.58
2022-10-17T21:16:52.675Z,2.47
2022-10-17T21:19:37.828Z,2.40
2022-10-17T21:22:23.015Z,2.40
2022-10-17T21:25:08.361Z,2.90
2022-10-17T21:27:53.403Z,2.85
2022-10-17T21:30:38.510Z,2.70
2022-10-17T21:33:23.661Z,2.95
2022-10-17T21:36:09.842Z,3.10
2022-10-17T21:38:56.775Z,3.20
2022-10-17T21:41:43.255Z,3.10
2022-10-17T21:44:27.990Z,3.10
2022-10-17T21:47:14.804Z,3.35
2022-10-17T21:49:59.620Z,3.15
2022-10-17T21:52:44.411Z,3.33
2022-10-17T21:55:29.584Z,3.10
2022-10-17T21:58:14.730Z,3.30
2022-10-17T22:01:10.490Z,3.45
2022-10-17T22:04:01.151Z,3.50
2022-10-17T22:06:48.098Z,3.27
2022-10-17T22:09:33.230Z,3.13
2022-10-17T22:12:18.637Z,3.22
2022-10-17T22:15:04.310Z,3.15
2022-10-17T22:17:49.236Z,3.45
2022-10-17T22:20:34.985Z,3.63
2022-10-17T22:23:20.763Z,4.15
2022-10-17T22:26:07.093Z,3.42
2022-10-17T22:28:52.087Z,3.70
2022-10-17T22:31:38.564Z,3.83
2022-10-17T22:34:23.491Z,3.90
2022-10-17T22:37:08.551Z,3.90
2022-10-17T22:39:53.696Z,4.13
2022-10-17T22:42:38.608Z,4.00
2022-10-17T22:45:23.656Z,3.92
2022-10-17T22:48:08.970Z,3.60
2022-10-17T22:50:55.076Z,3.70
2022-10-17T22:53:39.898Z,3.58
2022-10-17T22:56:25.163Z,3.60
2022-10-17T22:59:10.215Z,3.50
2022-10-17T23:01:55.763Z,3.67
2022-10-17T23:04:41.590Z,4.15
2022-10-17T23:07:27.458Z,4.15
2022-10-17T23:10:12.386Z,3.65
2022-10-17T23:12:57.421Z,3.67
2022-10-17T23:15:43.147Z,4.03
2022-10-17T23:18:28.133Z,3.72
2022-10-17T23:21:13.371Z,3.72
2022-10-17T23:23:58.483Z,3.95
2022-10-17T23:26:43.318Z,4.30
2022-10-17T23:29:33.200Z,3.90
2022-10-17T23:32:20.002Z,3.85
2022-10-17T23:35:05.437Z,3.97
2022-10-17T23:37:50.600Z,3.75
2022-10-17T23:40:35.941Z,4.20
2022-10-17T23:43:20.782Z,4.00
2022-10-17T23:46:06.507Z,4.50
2022-10-17T23:48:51.628Z,4.55
2022-10-17T23:51:36.769Z,4.05
2022-10-17T23:54:21.836Z,4.03
2022-10-17T23:57:07.878Z,3.77
2022-10-17T23:59:52.898Z,4.20
